createdAt,value
2022-12-23T00:00:44.323Z,1.77
2022-12-23T00:03:12.159Z,1.60
2022-12-23T00:05:40.044Z,1.60
2022-12-23T00:08:08.125Z,1.70
2022-12-23T00:10:39.609Z,1.37
2022-12-23T00:13:26.411Z,1.50
2022-12-23T00:16:03.321Z,1.70
2022-12-23T00:18:30.807Z,2.03
2022-12-23T00:21:04.797Z,1.37
2022-12-23T00:23:37.331Z,1.63
2022-12-23T00:26:05.644Z,1.40
2022-12-23T00:28:32.895Z,1.43
2022-12-23T00:31:02.598Z,1.80
2022-12-23T00:33:33.208Z,1.60
2022-12-23T00:36:01.355Z,1.90
2022-12-23T00:38:47.115Z,1.97
2022-12-23T00:41:37.179Z,1.30
2022-12-23T00:44:05.236Z,1.63
2022-12-23T00:46:32.506Z,2.10
2022-12-23T00:49:17.905Z,1.80
2022-12-23T00:51:45.100Z,1.83
2022-12-23T00:54:12.172Z,2.30
2022-12-23T00:56:39.038Z,1.77
2022-12-23T00:59:06.654Z,1.70
2022-12-23T01:01:52.071Z,1.73
2022-12-23T01:04:38.941Z,1.50
2022-12-23T01:07:07.614Z,1.40
2022-12-23T01:09:34.745Z,1.50
2022-12-23T01:12:01.814Z,1.50
2022-12-23T01:14:29.621Z,1.30
2022-12-23T01:16:56.573Z,1.20
2022-12-23T01:19:23.626Z,1.60
2022-12-23T01:21:50.531Z,1.13
2022-12-23T01:24:17.567Z,1.70
2022-12-23T01:26:44.531Z,1.23
2022-12-23T01:29:11.435Z,1.10
2022-12-23T01:31:38.556Z,1.50
2022-12-23T01:34:05.757Z,0.90
2022-12-23T01:36:32.645Z,1.30
2022-12-23T01:38:59.547Z,1.13
2022-12-23T01:41:51.350Z,1.00
2022-12-23T01:44:51.606Z,1.10
2022-12-23T01:47:53.400Z,0.90
2022-12-23T01:50:33.369Z,0.93
2022-12-23T01:53:21.780Z,1.00
2022-12-23T01:56:03.612Z,1.10
2022-12-23T01:58:35.580Z,0.90
2022-12-23T02:01:21.559Z,1.00
2022-12-23T02:03:53.461Z,1.10
2022-12-23T02:06:44.188Z,0.97
2022-12-23T02:09:30.400Z,1.03
2022-12-23T02:12:29.131Z,1.07
2022-12-23T02:15:48.845Z,0.93
2022-12-23T02:18:51.901Z,0.70
2022-12-23T02:21:40.276Z,0.70
2022-12-23T02:24:44.558Z,0.60
2022-12-23T02:27:32.490Z,0.77
2022-12-23T02:30:24.072Z,0.80
2022-12-23T02:33:46.756Z,1.00
2022-12-23T02:36:50.050Z,0.70
2022-12-23T02:39:43.042Z,0.90
2022-12-23T02:42:17.435Z,0.70
2022-12-23T02:45:01.448Z,0.70
2022-12-23T02:47:50.833Z,0.80
2022-12-23T02:50:29.655Z,0.90
2022-12-23T02:53:02.993Z,0.63
2022-12-23T02:55:35.179Z,0.60
2022-12-23T02:58:08.422Z,0.67
2022-12-23T03:00:37.581Z,0.90
2022-12-23T03:03:04.908Z,0.60
2022-12-23T03:05:35.311Z,0.60
2022-12-23T03:08:06.205Z,0.60
2022-12-23T03:10:52.175Z,0.60
2022-12-23T03:14:00.128Z,0.80
2022-12-23T03:17:06.176Z,0.60
2022-12-23T03:19:41.836Z,0.57
2022-12-23T03:22:51.580Z,0.57
2022-12-23T03:25:41.047Z,0.60
2022-12-23T03:28:21.604Z,0.60
2022-12-23T03:30:53.262Z,0.60
2022-12-23T03:33:31.843Z,0.60
2022-12-23T03:36:07.024Z,0.60
2022-12-23T03:38:38.080Z,0.60
2022-12-23T03:41:33.531Z,0.60
2022-12-23T03:44:20.317Z,0.57
2022-12-23T03:46:56.626Z,0.93
2022-12-23T03:49:33.854Z,0.60
2022-12-23T03:52:17.274Z,0.50
2022-12-23T03:54:55.672Z,0.60
2022-12-23T03:57:42.123Z,0.60
2022-12-23T04:00:10.314Z,0.50
2022-12-23T04:02:49.864Z,0.60
2022-12-23T04:05:43.083Z,0.40
2022-12-23T04:08:26.150Z,0.60
2022-12-23T04:10:53.333Z,0.50
2022-12-23T04:13:20.262Z,0.50
2022-12-23T04:15:47.515Z,0.60
2022-12-23T04:18:16.241Z,0.90
2022-12-23T04:20:43.302Z,0.50
2022-12-23T04:23:10.278Z,0.70
2022-12-23T04:25:37.825Z,0.60
2022-12-23T04:28:05.059Z,0.67
2022-12-23T04:30:34.645Z,0.60
2022-12-23T04:33:02.745Z,0.60
2022-12-23T04:35:30.459Z,0.53
2022-12-23T04:37:57.376Z,0.60
2022-12-23T04:40:24.410Z,0.50
2022-12-23T04:42:51.347Z,0.50
2022-12-23T04:45:18.333Z,0.50
2022-12-23T04:47:45.286Z,0.60
2022-12-23T04:50:16.687Z,0.50
2022-12-23T04:52:44.444Z,0.60
2022-12-23T04:55:11.974Z,0.53
2022-12-23T04:57:38.963Z,0.80
2022-12-23T05:00:06.835Z,0.40
2022-12-23T05:02:33.876Z,0.50
2022-12-23T05:05:00.908Z,0.50
2022-12-23T05:07:27.795Z,0.50
2022-12-23T05:09:54.666Z,0.50
2022-12-23T05:12:21.551Z,0.50
2022-12-23T05:14:48.511Z,0.53
2022-12-23T05:17:15.373Z,0.50
2022-12-23T05:19:42.307Z,0.50
2022-12-23T05:22:09.211Z,0.50
2022-12-23T05:24:36.145Z,0.50
2022-12-23T05:27:03.221Z,0.50
2022-12-23T05:29:30.080Z,0.50
2022-12-23T05:31:56.998Z,0.57
2022-12-23T05:34:23.999Z,0.50
2022-12-23T05:36:51.023Z,0.50
2022-12-23T05:39:17.940Z,0.50
2022-12-23T05:41:45.841Z,0.50
2022-12-23T05:44:12.689Z,0.50
2022-12-23T05:46:39.647Z,0.60
2022-12-23T05:49:06.645Z,0.57
2022-12-23T05:51:33.620Z,0.50
2022-12-23T05:54:00.555Z,1.00
2022-12-23T05:56:27.418Z,0.50
2022-12-23T05:58:54.405Z,0.50
2022-12-23T06:01:21.394Z,0.50
2022-12-23T06:03:48.477Z,0.53
2022-12-23T06:06:15.640Z,0.50
2022-12-23T06:08:42.619Z,0.60
2022-12-23T06:11:09.569Z,0.50
2022-12-23T06:13:36.553Z,0.57
2022-12-23T06:16:03.738Z,0.50
2022-12-23T06:18:30.656Z,0.60
2022-12-23T06:20:57.529Z,0.50
2022-12-23T06:23:24.466Z,0.60
2022-12-23T06:25:59.938Z,0.60
2022-12-23T06:28:27.706Z,0.70
2022-12-23T06:30:58.246Z,0.90
2022-12-23T06:33:25.469Z,0.87
2022-12-23T06:35:52.354Z,0.87
2022-12-23T06:38:19.344Z,1.50
2022-12-23T06:40:46.367Z,1.30
2022-12-23T06:43:13.559Z,0.90
2022-12-23T06:45:41.643Z,0.90
2022-12-23T06:48:08.609Z,1.00
2022-12-23T06:50:35.535Z,0.80
2022-12-23T06:53:02.468Z,0.73
2022-12-23T06:55:29.537Z,0.80
2022-12-23T06:57:56.526Z,0.70
2022-12-23T07:00:23.568Z,0.83
2022-12-23T07:02:50.629Z,0.70
2022-12-23T07:05:17.646Z,0.80
2022-12-23T07:07:44.536Z,0.80
2022-12-23T07:10:11.483Z,0.70
2022-12-23T07:12:39.027Z,0.80
2022-12-23T07:15:08.151Z,0.90
2022-12-23T07:17:35.267Z,1.10
2022-12-23T07:20:02.331Z,0.70
2022-12-23T07:22:29.306Z,2.23
2022-12-23T07:24:56.220Z,2.57
2022-12-23T07:27:23.208Z,2.30
2022-12-23T07:29:50.211Z,1.87
2022-12-23T07:32:17.126Z,2.10
2022-12-23T07:34:44.028Z,1.37
2022-12-23T07:37:10.964Z,1.20
2022-12-23T07:39:38.602Z,0.90
2022-12-23T07:44:52.367Z,1.00
2022-12-23T07:47:19.300Z,0.90
2022-12-23T07:49:46.276Z,0.90
2022-12-23T07:52:13.143Z,1.00
2022-12-23T07:54:40.081Z,0.80
2022-12-23T07:57:07.122Z,1.00
2022-12-23T07:59:34.039Z,0.90
2022-12-23T08:02:01.099Z,0.93
2022-12-23T08:04:28.273Z,0.87
2022-12-23T08:06:55.303Z,0.80
2022-12-23T08:09:22.284Z,0.90
2022-12-23T08:11:49.181Z,0.80
2022-12-23T08:14:16.107Z,0.97
2022-12-23T08:16:44.302Z,0.97
2022-12-23T08:19:11.497Z,0.90
2022-12-23T08:21:38.385Z,0.90
2022-12-23T08:24:05.673Z,0.90
2022-12-23T08:26:33.216Z,0.70
2022-12-23T08:29:00.731Z,1.03
2022-12-23T08:31:31.910Z,1.50
2022-12-23T08:34:01.081Z,0.90
2022-12-23T08:36:32.750Z,0.93
2022-12-23T08:39:05.808Z,0.97
2022-12-23T08:41:39.170Z,0.90
2022-12-23T08:44:06.471Z,0.90
2022-12-23T08:46:34.369Z,1.00
2022-12-23T08:49:01.578Z,1.10
2022-12-23T08:51:29.458Z,1.10
2022-12-23T08:54:01.084Z,1.10
2022-12-23T08:56:32.492Z,0.93
2022-12-23T08:59:00.097Z,0.90
2022-12-23T09:01:30.395Z,0.90
2022-12-23T09:03:57.559Z,0.90
2022-12-23T09:06:31.785Z,1.00
2022-12-23T09:08:59.841Z,1.10
2022-12-23T09:11:29.222Z,0.90
2022-12-23T09:13:58.732Z,0.80
2022-12-23T09:16:26.402Z,0.80
2022-12-23T09:18:53.453Z,0.80
2022-12-23T09:21:23.061Z,0.80
2022-12-23T09:23:50.807Z,1.00
2022-12-23T09:26:27.272Z,1.10
2022-12-23T09:28:54.754Z,0.77
2022-12-23T09:31:22.946Z,1.10
2022-12-23T09:33:52.983Z,1.00
2022-12-23T09:36:21.656Z,1.67
2022-12-23T09:38:54.713Z,1.10
2022-12-23T09:41:55.261Z,1.50
2022-12-23T09:44:43.147Z,1.50
2022-12-23T09:47:22.165Z,1.60
2022-12-23T09:50:00.871Z,2.17
2022-12-23T09:53:04.395Z,2.40
2022-12-23T09:55:49.279Z,2.50
2022-12-23T09:59:03.495Z,2.30
2022-12-23T10:01:47.680Z,1.77
2022-12-23T10:04:32.781Z,2.17
2022-12-23T10:07:05.544Z,2.57
2022-12-23T10:09:38.934Z,1.90
2022-12-23T10:12:39.523Z,1.97
2022-12-23T10:15:31.145Z,2.07
2022-12-23T10:18:06.888Z,2.77
2022-12-23T10:20:52.020Z,2.47
2022-12-23T10:23:33.413Z,1.80
2022-12-23T10:26:07.308Z,2.50
2022-12-23T10:28:34.402Z,4.97
2022-12-23T10:31:30.949Z,3.20
2022-12-23T10:34:14.638Z,4.10
2022-12-23T10:37:01.036Z,3.30
2022-12-23T10:39:53.513Z,3.07
2022-12-23T10:42:46.183Z,3.37
2022-12-23T10:45:45.657Z,3.87
2022-12-23T10:48:31.517Z,5.37
2022-12-23T10:51:03.630Z,3.90
2022-12-23T10:53:40.897Z,2.87
2022-12-23T10:56:08.927Z,2.93
2022-12-23T10:58:45.387Z,2.83
2022-12-23T11:01:24.108Z,2.83
2022-12-23T11:04:13.465Z,2.60
2022-12-23T11:07:10.650Z,3.10
2022-12-23T11:09:42.556Z,2.17
2022-12-23T11:12:12.690Z,2.97
2022-12-23T11:14:51.642Z,1.87
2022-12-23T11:17:35.124Z,1.80
2022-12-23T11:20:29.289Z,1.60
2022-12-23T11:23:02.497Z,1.50
2022-12-23T11:25:43.297Z,1.47
2022-12-23T11:28:22.028Z,1.37
2022-12-23T11:31:08.223Z,1.47
2022-12-23T11:33:46.658Z,1.27
2022-12-23T11:36:13.462Z,1.40
2022-12-23T11:39:09.691Z,1.37
2022-12-23T11:41:47.515Z,1.47
2022-12-23T11:44:30.979Z,1.30
2022-12-23T11:46:58.167Z,1.10
2022-12-23T11:49:31.394Z,1.30
2022-12-23T11:52:18.828Z,1.60
2022-12-23T11:55:06.988Z,1.47
2022-12-23T11:57:46.209Z,4.23
2022-12-23T12:00:27.393Z,3.27
2022-12-23T12:02:59.073Z,2.80
2022-12-23T12:05:41.524Z,1.20
2022-12-23T12:08:21.698Z,1.17
2022-12-23T12:10:53.183Z,1.00
2022-12-23T12:13:45.683Z,0.90
2022-12-23T12:16:35.690Z,0.80
2022-12-23T12:19:19.245Z,0.83
2022-12-23T12:21:47.585Z,1.00
2022-12-23T12:24:33.185Z,0.60
2022-12-23T12:27:06.096Z,0.70
2022-12-23T12:29:51.693Z,0.87
2022-12-23T12:32:53.114Z,0.70
2022-12-23T12:35:24.149Z,0.80
2022-12-23T12:38:05.258Z,0.80
2022-12-23T12:40:57.942Z,0.87
2022-12-23T12:43:34.893Z,0.90
2022-12-23T12:46:23.665Z,0.67
2022-12-23T12:49:10.816Z,0.80
2022-12-23T12:51:58.246Z,0.73
2022-12-23T12:54:44.293Z,1.07
2022-12-23T12:57:23.172Z,0.80
2022-12-23T12:59:58.575Z,0.70
2022-12-23T13:02:47.002Z,0.80
2022-12-23T13:05:54.275Z,0.90
2022-12-23T13:08:50.403Z,1.07
2022-12-23T13:11:54.309Z,1.10
2022-12-23T13:14:45.242Z,1.10
2022-12-23T13:17:27.369Z,1.47
2022-12-23T13:20:09.084Z,1.20
2022-12-23T13:22:37.812Z,1.00
2022-12-23T13:25:32.733Z,1.40
2022-12-23T13:28:20.791Z,1.23
2022-12-23T13:31:16.300Z,1.50
2022-12-23T13:34:30.341Z,1.20
2022-12-23T13:37:26.198Z,1.60
2022-12-23T13:40:35.038Z,2.27
2022-12-23T13:43:14.692Z,1.90
2022-12-23T13:45:42.598Z,1.53
2022-12-23T13:48:18.071Z,2.07
2022-12-23T13:50:58.529Z,2.30
2022-12-23T13:53:47.770Z,3.13
2022-12-23T13:56:35.425Z,2.10
2022-12-23T13:59:02.308Z,1.87
2022-12-23T14:01:52.494Z,1.70
2022-12-23T14:04:33.356Z,1.50
2022-12-23T14:07:17.317Z,1.20
2022-12-23T14:09:54.369Z,1.10
2022-12-23T14:12:31.438Z,1.40
2022-12-23T14:15:49.579Z,1.50
2022-12-23T14:19:18.625Z,1.37
2022-12-23T14:22:03.297Z,1.00
2022-12-23T14:24:42.917Z,0.80
2022-12-23T14:27:50.361Z,1.30
2022-12-23T14:30:30.529Z,1.23
2022-12-23T14:33:25.818Z,1.40
2022-12-23T14:36:26.791Z,1.23
2022-12-23T14:39:33.510Z,1.43
2022-12-23T14:42:05.940Z,1.00
2022-12-23T14:44:37.411Z,1.20
2022-12-23T14:47:35.319Z,1.50
2022-12-23T14:50:40.563Z,1.47
2022-12-23T14:53:31.250Z,1.20
2022-12-23T14:56:16.887Z,1.20
2022-12-23T14:59:05.229Z,1.13
2022-12-23T15:01:48.382Z,1.03
2022-12-23T15:04:44.520Z,1.27
2022-12-23T15:07:43.180Z,1.10
2022-12-23T15:10:26.388Z,1.40
2022-12-23T15:12:58.599Z,1.20
2022-12-23T15:15:29.818Z,1.23
2022-12-23T15:18:13.080Z,1.00
2022-12-23T15:20:40.877Z,1.23
2022-12-23T15:23:16.655Z,0.90
2022-12-23T15:25:49.093Z,1.00
2022-12-23T15:28:21.065Z,0.80
2022-12-23T15:30:53.117Z,0.70
2022-12-23T15:36:11.633Z,1.00
2022-12-23T15:38:39.625Z,0.73
2022-12-23T15:41:15.928Z,0.83
2022-12-23T15:43:43.831Z,0.73
2022-12-23T15:46:23.464Z,0.90
2022-12-23T15:48:54.230Z,1.00
2022-12-23T15:52:06.376Z,0.90
2022-12-23T15:54:34.931Z,0.90
2022-12-23T15:57:04.095Z,0.70
2022-12-23T15:59:38.428Z,1.00
2022-12-23T16:02:58.468Z,0.90
2022-12-23T16:05:05.416Z,0.87
2022-12-23T16:07:41.421Z,0.90
2022-12-23T16:10:20.520Z,0.73
2022-12-23T16:12:51.816Z,0.80
2022-12-23T16:15:33.195Z,0.70
2022-12-23T16:18:28.488Z,0.70
2022-12-23T16:21:02.499Z,0.70
2022-12-23T16:23:36.251Z,0.70
2022-12-23T16:26:04.296Z,0.70
2022-12-23T16:28:44.880Z,0.80
2022-12-23T16:31:17.503Z,0.60
2022-12-23T16:33:45.390Z,0.80
2022-12-23T16:36:27.587Z,0.80
2022-12-23T16:39:11.719Z,0.50
2022-12-23T16:41:38.681Z,1.13
2022-12-23T16:44:05.764Z,0.70
2022-12-23T16:46:38.297Z,0.70
2022-12-23T16:49:10.981Z,0.67
2022-12-23T16:51:39.732Z,0.73
2022-12-23T16:54:12.363Z,0.70
2022-12-23T16:56:40.732Z,0.90
2022-12-23T16:59:07.893Z,0.80
2022-12-23T17:01:41.664Z,1.10
2022-12-23T17:04:09.105Z,1.30
2022-12-23T17:06:36.762Z,1.30
2022-12-23T17:09:05.600Z,1.10
2022-12-23T17:11:45.869Z,0.80
2022-12-23T17:14:22.104Z,0.70
2022-12-23T17:16:50.550Z,0.80
2022-12-23T17:19:25.242Z,0.70
2022-12-23T17:22:01.129Z,0.77
2022-12-23T17:24:28.700Z,0.60
2022-12-23T17:26:59.130Z,0.77
2022-12-23T17:29:26.130Z,0.90
2022-12-23T17:31:53.492Z,0.63
2022-12-23T17:34:24.054Z,1.13
2022-12-23T17:36:51.644Z,1.03
2022-12-23T17:39:20.849Z,0.90
2022-12-23T17:41:48.669Z,0.70
2022-12-23T17:44:17.692Z,0.90
2022-12-23T17:46:46.353Z,0.90
2022-12-23T17:49:13.340Z,0.70
2022-12-23T17:51:40.553Z,0.80
2022-12-23T17:54:20.788Z,0.63
2022-12-23T17:56:47.794Z,0.60
2022-12-23T17:59:15.368Z,0.63
2022-12-23T18:01:42.514Z,0.70
2022-12-23T18:04:09.425Z,0.77
2022-12-23T18:06:36.341Z,0.97
2022-12-23T18:09:03.335Z,0.73
2022-12-23T18:11:41.894Z,0.67
2022-12-23T18:14:19.277Z,1.10
2022-12-23T18:16:46.489Z,0.90
2022-12-23T18:19:20.273Z,0.80
2022-12-23T18:21:47.693Z,0.80
2022-12-23T18:24:14.720Z,0.87
2022-12-23T18:26:41.943Z,0.87
2022-12-23T18:29:08.883Z,0.80
2022-12-23T18:31:37.535Z,0.67
2022-12-23T18:34:04.591Z,0.70
2022-12-23T18:36:33.902Z,0.80
2022-12-23T18:39:00.987Z,0.80
2022-12-23T18:41:28.323Z,0.90
2022-12-23T18:43:55.397Z,0.80
2022-12-23T18:46:22.670Z,0.80
2022-12-23T18:48:49.827Z,0.77
2022-12-23T18:51:20.441Z,0.70
2022-12-23T18:53:48.264Z,0.70
2022-12-23T18:56:20.052Z,0.80
2022-12-23T18:58:47.534Z,0.60
2022-12-23T19:01:16.645Z,0.70
2022-12-23T19:03:44.588Z,0.80
2022-12-23T19:06:14.785Z,1.00
2022-12-23T19:08:42.868Z,0.80
2022-12-23T19:11:20.236Z,0.70
2022-12-23T19:13:47.773Z,0.63
2022-12-23T19:16:19.131Z,0.73
2022-12-23T19:18:47.850Z,1.00
2022-12-23T19:21:17.527Z,0.70
2022-12-23T19:23:44.586Z,0.70
2022-12-23T19:26:14.844Z,0.70
2022-12-23T19:28:42.598Z,0.83
2022-12-23T19:31:15.876Z,0.70
2022-12-23T19:33:46.379Z,1.00
2022-12-23T19:36:20.153Z,0.70
2022-12-23T19:38:47.438Z,0.73
2022-12-23T19:41:14.495Z,0.90
2022-12-23T19:43:45.676Z,1.00
2022-12-23T19:46:14.353Z,0.83
2022-12-23T19:48:41.354Z,1.00
2022-12-23T19:51:13.962Z,1.07
2022-12-23T19:53:42.010Z,0.97
2022-12-23T19:56:14.252Z,1.00
2022-12-23T19:58:43.887Z,1.23
2022-12-23T20:01:20.764Z,1.00
2022-12-23T20:03:49.235Z,0.97
2022-12-23T20:06:21.015Z,1.33
2022-12-23T20:08:48.905Z,1.10
2022-12-23T20:11:26.203Z,1.10
2022-12-23T20:13:55.384Z,1.30
2022-12-23T20:16:23.007Z,1.03
2022-12-23T20:18:50.427Z,1.13
2022-12-23T20:21:17.740Z,1.00
2022-12-23T20:23:44.721Z,1.00
2022-12-23T20:26:16.191Z,1.30
2022-12-23T20:28:43.400Z,0.90
2022-12-23T20:31:17.476Z,1.20
2022-12-23T20:33:46.241Z,1.53
2022-12-23T20:36:15.739Z,1.43
2022-12-23T20:38:45.667Z,1.50
2022-12-23T20:41:16.861Z,1.20
2022-12-23T20:43:56.865Z,0.80
2022-12-23T20:46:31.519Z,0.90
2022-12-23T20:48:58.518Z,1.40
2022-12-23T20:51:26.100Z,1.23
2022-12-23T20:53:56.342Z,1.33
2022-12-23T20:56:27.503Z,1.50
2022-12-23T20:58:55.190Z,1.20
2022-12-23T21:01:35.169Z,1.23
2022-12-23T21:04:15.718Z,2.00
2022-12-23T21:06:44.210Z,1.43
2022-12-23T21:09:14.510Z,1.43
2022-12-23T21:11:45.499Z,1.27
2022-12-23T21:14:13.154Z,1.50
2022-12-23T21:16:41.221Z,1.60
2022-12-23T21:19:14.414Z,1.77
2022-12-23T21:21:41.427Z,1.67
2022-12-23T21:24:10.705Z,1.90
2022-12-23T21:26:37.777Z,1.60
2022-12-23T21:29:07.306Z,1.80
2022-12-23T21:31:38.055Z,1.90
2022-12-23T21:34:05.585Z,2.30
2022-12-23T21:36:36.838Z,2.23
2022-12-23T21:39:06.038Z,1.93
2022-12-23T21:41:37.617Z,2.53
2022-12-23T21:44:05.399Z,1.77
2022-12-23T21:46:32.646Z,1.67
2022-12-23T21:49:00.394Z,1.40
2022-12-23T21:51:39.733Z,1.83
2022-12-23T21:54:09.630Z,2.43
2022-12-23T21:56:36.798Z,1.40
2022-12-23T21:59:07.965Z,1.27
2022-12-23T22:01:35.427Z,1.20
2022-12-23T22:04:02.722Z,1.07
2022-12-23T22:06:33.684Z,1.10
2022-12-23T22:09:00.568Z,1.30
2022-12-23T22:11:31.603Z,0.80
2022-12-23T22:14:00.322Z,1.13
2022-12-23T22:16:29.252Z,1.00
2022-12-23T22:18:58.245Z,1.17
2022-12-23T22:21:27.871Z,1.20
2022-12-23T22:23:56.455Z,0.90
2022-12-23T22:26:28.141Z,0.93
2022-12-23T22:28:57.619Z,1.40
2022-12-23T22:31:39.803Z,1.57
2022-12-23T22:34:08.596Z,1.47
2022-12-23T22:36:35.707Z,1.30
2022-12-23T22:39:03.407Z,1.30
2022-12-23T22:41:31.184Z,1.60
2022-12-23T22:43:59.142Z,2.00
2022-12-23T22:46:26.936Z,1.90
2022-12-23T22:48:54.254Z,2.67
2022-12-23T22:51:28.384Z,1.70
2022-12-23T22:53:56.670Z,2.30
2022-12-23T22:56:25.624Z,2.10
2022-12-23T22:58:53.993Z,2.37
2022-12-23T23:01:32.881Z,1.70
2022-12-23T23:04:02.453Z,1.77
2022-12-23T23:06:37.552Z,2.07
2022-12-23T23:09:07.269Z,2.10
2022-12-23T23:11:34.293Z,1.97
2022-12-23T23:14:01.531Z,1.83
2022-12-23T23:16:28.619Z,1.60
2022-12-23T23:18:55.860Z,2.50
2022-12-23T23:21:23.016Z,2.20
2022-12-23T23:23:50.139Z,1.50
2022-12-23T23:26:19.008Z,1.70
2022-12-23T23:28:46.830Z,1.93
2022-12-23T23:31:44.743Z,1.70
2022-12-23T23:34:01.271Z,1.73
2022-12-23T23:36:28.166Z,2.70
2022-12-23T23:38:55.199Z,1.97
2022-12-23T23:41:23.572Z,1.90
2022-12-23T23:43:51.934Z,1.60
2022-12-23T23:46:19.098Z,1.90
2022-12-23T23:48:46.039Z,1.80
2022-12-23T23:51:13.009Z,1.67
2022-12-23T23:53:40.394Z,1.70
2022-12-23T23:56:08.401Z,2.30
2022-12-23T23:58:36.684Z,1.93
